Palleja, Spain
Current Conditions -  °F | °C
As of 1:30 PM on Monday 24 Nov 2014 (Local Time) from LELL Reporting Station
Light Rain Light Rain  
Wind Chill: 68°   Ceiling: 8000
Heat Index: 68°   Visibility: 6mi
Dew Point: 61°   Wind: 2mph
Humidity: 78%   Direction: NA
Pressure: 30.03"   Gusts: NA
Location:  41.42°N, 2°E
Report Text: LELL 241230Z VRB02KT 9999 -RA FEW020 SCT040 BKN080 20/16 Q1017 RERA
Loading
Personal Weather Stations






























Interactive Weather Map New forecast layout! Learn more

10-Day Weather Forecast

Advertisements
Track Severe Weather on mobile